Time;durP1;ratioP1;P1;durP2;ratioP2;P2;SDS_P1;SDS_P2;PMS_P1;PMS_P2;Temp;Humidity;BMP_temperature;BMP_pressure;BME280_temperature;BME280_humidity;BME280_pressure;Samples;Min_cycle;Max_cycle;Signal;HPM_P1;HPM_P2
2023/12/27 00:00:04;;;;;;;2.58;1.25;;;7.50;99.90;;;;;;4991882;28;20224;-76
2023/12/27 00:02:31;;;;;;;1.30;1.20;;;7.50;99.90;;;;;;4994188;28;20705;-76
2023/12/27 00:04:58;;;;;;;1.38;1.00;;;7.50;99.90;;;;;;4991943;28;20217;-75
2023/12/27 00:07:24;;;;;;;1.40;1.17;;;7.50;99.90;;;;;;4992545;28;20220;-75
2023/12/27 00:09:52;;;;;;;1.42;1.10;;;7.50;99.90;;;;;;4991704;28;20221;-76
2023/12/27 00:12:19;;;;;;;2.85;1.05;;;7.60;99.90;;;;;;4992356;28;20219;-75
2023/12/27 00:14:46;;;;;;;1.63;0.95;;;7.60;99.90;;;;;;4991858;28;20209;-76
2023/12/27 04:30:53;;;;;;;1.58;1.15;;;6.30;99.90;;;;;;5999279;22;21449;-78
2023/12/27 04:33:20;;;;;;;3.25;1.50;;;6.30;99.90;;;;;;5017577;28;20207;-78
2023/12/27 04:35:47;;;;;;;1.17;1.00;;;6.30;99.90;;;;;;5021085;28;20746;-78
2023/12/27 04:38:14;;;;;;;1.40;1.30;;;6.30;99.90;;;;;;5021205;28;20214;-76
2023/12/27 04:40:45;;;;;;;2.47;1.30;;;6.20;99.90;;;;;;5015790;28;20223;-78
2023/12/27 04:43:16;;;;;;;1.15;1.05;;;6.20;99.90;;;;;;5000390;28;20203;-78
2023/12/27 04:45:42;;;;;;;1.27;1.17;;;6.20;99.90;;;;;;4999667;28;20223;-77
2023/12/27 04:48:10;;;;;;;3.83;1.45;;;6.10;99.90;;;;;;4999494;28;20703;-78
2023/12/27 04:50:37;;;;;;;1.35;1.05;;;6.10;99.90;;;;;;5002640;28;20233;-77
2023/12/27 04:53:04;;;;;;;2.15;1.20;;;6.00;99.90;;;;;;5000340;28;20686;-77
2023/12/27 04:55:31;;;;;;;2.75;1.30;;;5.90;99.90;;;;;;5000019;28;20208;-77
2023/12/27 04:58:00;;;;;;;3.85;1.70;;;5.90;99.90;;;;;;5000151;28;20199;-78
2023/12/27 05:00:30;;;;;;;4.05;2.13;;;5.80;99.90;;;;;;4998892;28;20317;-78
2023/12/27 05:02:57;;;;;;;2.38;1.48;;;5.70;99.90;;;;;;4999281;28;20587;-77
2023/12/27 05:05:25;;;;;;;1.63;1.50;;;5.70;99.90;;;;;;4999075;28;20206;-78
2023/12/27 05:07:52;;;;;;;3.65;2.30;;;5.60;99.90;;;;;;4995665;28;20223;-78
2023/12/27 05:10:18;;;;;;;2.80;1.88;;;5.50;99.90;;;;;;4992178;28;20671;-78
2023/12/27 05:12:45;;;;;;;1.40;1.00;;;5.40;99.90;;;;;;4989818;28;20672;-79
2023/12/27 05:15:12;;;;;;;1.55;1.20;;;5.40;99.90;;;;;;4993258;28;20206;-78
2023/12/27 05:17:39;;;;;;;3.28;1.55;;;5.30;99.90;;;;;;4992403;28;20218;-79
2023/12/27 05:20:07;;;;;;;1.67;1.15;;;5.30;99.90;;;;;;4992794;28;20295;-78
2023/12/27 05:22:39;;;;;;;1.35;1.25;;;5.20;99.90;;;;;;4992855;28;20235;-79
2023/12/27 05:25:07;;;;;;;1.85;1.73;;;5.10;99.90;;;;;;4993403;28;20207;-78
2023/12/27 05:27:33;;;;;;;1.77;1.55;;;5.10;99.90;;;;;;4992767;28;20226;-78
2023/12/27 05:30:00;;;;;;;2.13;1.70;;;5.10;99.90;;;;;;4992177;28;20203;-79
2023/12/27 05:32:27;;;;;;;1.67;1.40;;;5.00;99.90;;;;;;4992842;28;20237;-79
2023/12/27 05:34:54;;;;;;;1.30;1.10;;;4.90;99.90;;;;;;4992060;28;20231;-78
2023/12/27 05:37:21;;;;;;;1.85;1.70;;;4.90;99.90;;;;;;4992595;28;20211;-78
2023/12/27 05:39:49;;;;;;;1.83;1.27;;;4.80;99.90;;;;;;4992570;28;20215;-78
2023/12/27 05:42:16;;;;;;;1.77;1.52;;;4.70;99.90;;;;;;4992211;28;20219;-78
2023/12/27 05:44:42;;;;;;;1.80;1.15;;;4.60;99.90;;;;;;4992148;28;20218;-79
2023/12/27 05:47:09;;;;;;;1.20;1.10;;;4.60;99.90;;;;;;4995883;28;20203;-79
2023/12/27 05:49:36;;;;;;;1.40;1.30;;;4.60;99.90;;;;;;4996737;28;20223;-78
2023/12/27 05:52:03;;;;;;;2.40;1.50;;;4.60;99.90;;;;;;4995598;28;20223;-78
2023/12/27 05:54:30;;;;;;;2.20;1.30;;;4.50;99.90;;;;;;4996885;28;20207;-78
2023/12/27 05:56:58;;;;;;;1.00;0.90;;;4.50;99.90;;;;;;4996495;28;20602;-79
2023/12/27 05:59:25;;;;;;;1.85;1.30;;;4.50;99.90;;;;;;4996801;28;20207;-79
2023/12/27 06:01:52;;;;;;;2.30;1.23;;;4.60;99.90;;;;;;4996287;28;20716;-79
2023/12/27 06:04:19;;;;;;;2.47;1.60;;;4.50;99.90;;;;;;4996867;28;20238;-79
2023/12/27 06:06:46;;;;;;;1.30;1.20;;;4.50;99.90;;;;;;4993633;28;20260;-79
2023/12/27 06:09:13;;;;;;;1.90;1.55;;;4.40;99.90;;;;;;4994873;28;20255;-79
2023/12/27 06:11:39;;;;;;;1.50;1.40;;;4.40;99.90;;;;;;4996205;28;20231;-79
2023/12/27 06:14:07;;;;;;;1.88;1.25;;;4.40;99.90;;;;;;4995247;28;20668;-78
2023/12/27 06:16:34;;;;;;;1.33;1.02;;;4.40;99.90;;;;;;4996332;28;20215;-78
2023/12/27 06:19:01;;;;;;;2.22;1.70;;;4.30;99.90;;;;;;4999281;28;20715;-77
2023/12/27 06:21:29;;;;;;;2.92;2.05;;;4.30;99.90;;;;;;4999118;28;20574;-76
2023/12/27 06:23:56;;;;;;;5.20;2.45;;;4.30;99.90;;;;;;5000521;28;20222;-77
2023/12/27 06:26:23;;;;;;;8.38;3.35;;;4.30;99.90;;;;;;5001372;28;20854;-78
2023/12/27 06:28:49;;;;;;;9.10;3.45;;;4.30;99.90;;;;;;5002076;28;20223;-78
2023/12/27 06:31:17;;;;;;;5.50;5.00;;;4.20;99.90;;;;;;5001956;28;20231;-78
2023/12/27 06:33:44;;;;;;;7.28;5.20;;;4.20;99.90;;;;;;5001935;28;20213;-77
2023/12/27 06:36:11;;;;;;;5.10;4.10;;;4.20;99.90;;;;;;4996706;28;20212;-77
2023/12/27 06:38:39;;;;;;;4.47;3.80;;;4.20;99.90;;;;;;4996755;28;20203;-77
2023/12/27 06:41:07;;;;;;;5.20;3.58;;;4.10;99.90;;;;;;4996747;28;20271;-77
2023/12/27 06:43:33;;;;;;;6.03;3.60;;;4.00;99.90;;;;;;4998921;28;20226;-78
2023/12/27 06:46:00;;;;;;;5.57;3.15;;;4.00;99.90;;;;;;5001179;28;20207;-78
2023/12/27 06:48:28;;;;;;;4.50;3.00;;;4.00;99.90;;;;;;5000125;28;20234;-77
2023/12/27 06:50:55;;;;;;;4.60;2.00;;;4.00;99.90;;;;;;4996521;28;20730;-76
2023/12/27 06:53:21;;;;;;;4.28;1.80;;;3.90;99.90;;;;;;4998195;28;20211;-77
2023/12/27 06:55:48;;;;;;;3.20;2.13;;;3.90;99.90;;;;;;4996802;28;20207;-77
2023/12/27 06:58:15;;;;;;;6.43;2.40;;;3.90;99.90;;;;;;4995127;28;20664;-77
2023/12/27 07:00:41;;;;;;;1.83;1.73;;;3.90;99.90;;;;;;4996086;28;20224;-77
2023/12/27 07:03:08;;;;;;;1.70;1.60;;;3.90;99.90;;;;;;4996953;28;20213;-77
2023/12/27 07:05:38;;;;;;;2.65;1.20;;;4.00;99.90;;;;;;4997605;28;20207;-76
2023/12/27 07:08:05;;;;;;;2.45;1.75;;;4.00;99.90;;;;;;4997833;28;20226;-77
2023/12/27 07:10:32;;;;;;;2.38;1.67;;;4.10;99.90;;;;;;4997832;28;20242;-77
2023/12/27 07:12:59;;;;;;;2.85;1.50;;;4.10;99.90;;;;;;5001239;28;20203;-76
2023/12/27 07:15:26;;;;;;;1.60;1.50;;;4.20;99.90;;;;;;5001818;28;20599;-76
2023/12/27 07:17:52;;;;;;;2.15;1.55;;;4.20;99.90;;;;;;5001973;28;20218;-77
2023/12/27 07:20:19;;;;;;;1.67;1.45;;;4.20;99.90;;;;;;5004330;28;20207;-76
2023/12/27 07:22:48;;;;;;;1.10;1.00;;;4.30;99.90;;;;;;4999267;28;20211;-76
2023/12/27 07:25:15;;;;;;;1.50;1.17;;;4.30;99.90;;;;;;4999160;28;20562;-76
2023/12/27 07:27:41;;;;;;;3.25;1.50;;;4.30;99.90;;;;;;4999406;28;20654;-77
2023/12/27 07:30:09;;;;;;;1.23;1.13;;;4.40;99.90;;;;;;4998627;28;20223;-77
2023/12/27 07:32:36;;;;;;;2.45;1.42;;;4.40;99.90;;;;;;4995671;28;20621;-77
2023/12/27 07:35:04;;;;;;;1.35;1.25;;;4.40;99.90;;;;;;4995111;28;20229;-77
2023/12/27 07:37:31;;;;;;;2.40;1.70;;;4.40;99.90;;;;;;4993799;28;20213;-77
2023/12/27 07:39:59;;;;;;;1.10;1.00;;;4.50;99.90;;;;;;4993353;28;20207;-77
2023/12/27 07:42:26;;;;;;;3.88;1.60;;;4.50;99.90;;;;;;4993745;28;20238;-77
2023/12/27 07:44:53;;;;;;;1.70;1.60;;;4.50;99.90;;;;;;4993164;28;20207;-76
2023/12/27 07:47:20;;;;;;;1.73;1.35;;;4.50;99.90;;;;;;4993339;28;20211;-76
2023/12/27 07:49:46;;;;;;;3.67;1.40;;;4.60;99.90;;;;;;4989533;28;20230;-77
2023/12/27 07:52:13;;;;;;;1.85;1.55;;;4.60;99.90;;;;;;4992132;28;20223;-77
2023/12/27 07:54:40;;;;;;;3.60;1.92;;;4.60;99.90;;;;;;4993260;28;20215;-77
2023/12/27 07:57:08;;;;;;;2.03;1.20;;;4.60;99.90;;;;;;4993241;28;20579;-76
2023/12/27 07:59:34;;;;;;;1.35;1.25;;;4.70;99.90;;;;;;4993521;28;20589;-77
2023/12/27 08:02:01;;;;;;;1.85;1.40;;;4.70;99.90;;;;;;4993125;28;20235;-77
2023/12/27 08:04:28;;;;;;;1.70;1.60;;;4.80;99.90;;;;;;4993562;28;20211;-76
2023/12/27 08:06:55;;;;;;;1.45;1.35;;;4.80;99.90;;;;;;4994896;28;20299;-77
2023/12/27 08:09:22;;;;;;;1.50;1.20;;;4.80;99.90;;;;;;4995704;28;20234;-77
2023/12/27 08:11:49;;;;;;;2.08;1.55;;;4.90;99.90;;;;;;4999062;28;20650;-74
2023/12/27 08:14:17;;;;;;;1.60;1.25;;;4.90;99.90;;;;;;4991839;28;20207;-75
2023/12/27 08:16:44;;;;;;;2.50;1.48;;;5.00;99.90;;;;;;4991932;28;20262;-75
2023/12/27 08:19:11;;;;;;;2.10;1.20;;;5.00;99.90;;;;;;4991686;28;20207;-75
2023/12/27 08:21:37;;;;;;;2.13;1.88;;;5.00;99.90;;;;;;4991633;28;20231;-75
2023/12/27 08:24:04;;;;;;;1.75;1.25;;;5.10;99.90;;;;;;4991606;28;20211;-75
2023/12/27 08:26:31;;;;;;;5.05;1.60;;;5.10;99.90;;;;;;4991758;28;20711;-76
2023/12/27 08:28:58;;;;;;;4.80;2.00;;;5.20;99.90;;;;;;4991728;28;20234;-76
2023/12/27 08:31:26;;;;;;;1.73;1.30;;;5.30;99.90;;;;;;4991457;28;20616;-77
2023/12/27 08:33:53;;;;;;;2.00;1.80;;;5.40;99.90;;;;;;4992040;28;20215;-76
2023/12/27 08:36:20;;;;;;;2.22;1.42;;;5.40;99.90;;;;;;4988419;28;20258;-77
2023/12/27 08:38:47;;;;;;;2.55;1.45;;;5.50;99.90;;;;;;4991628;28;20203;-76
2023/12/27 08:41:13;;;;;;;3.30;1.83;;;5.50;99.90;;;;;;4991120;28;20602;-76
2023/12/27 08:43:42;;;;;;;1.10;1.00;;;5.50;99.90;;;;;;4991591;28;20238;-76
2023/12/27 08:46:10;;;;;;;1.88;1.67;;;5.50;99.90;;;;;;4991594;28;20203;-76
2023/12/27 08:48:39;;;;;;;2.05;1.85;;;5.50;99.90;;;;;;4991381;28;20227;-75
2023/12/27 08:51:06;;;;;;;1.95;1.67;;;5.60;99.90;;;;;;4991661;28;20445;-76
2023/12/27 08:53:33;;;;;;;2.58;1.25;;;5.70;99.90;;;;;;4992260;28;20211;-76
2023/12/27 08:55:59;;;;;;;3.80;1.88;;;5.80;99.90;;;;;;4991810;28;20215;-76
2023/12/27 08:58:26;;;;;;;2.00;1.80;;;5.90;99.90;;;;;;4991914;28;20699;-76
2023/12/27 09:00:53;;;;;;;2.10;1.85;;;5.90;99.90;;;;;;4991425;28;20236;-75
2023/12/27 09:03:20;;;;;;;7.18;2.10;;;6.00;99.90;;;;;;4991412;28;20211;-76
2023/12/27 09:05:48;;;;;;;2.15;1.65;;;6.00;99.90;;;;;;4987028;28;20211;-76
2023/12/27 09:08:14;;;;;;;1.80;1.67;;;6.10;99.90;;;;;;4991156;28;20211;-76
2023/12/27 09:10:41;;;;;;;2.38;2.15;;;6.20;99.90;;;;;;4992630;28;20231;-78
2023/12/27 09:13:08;;;;;;;4.25;1.92;;;6.30;99.90;;;;;;4992793;28;20345;-77
2023/12/27 09:15:34;;;;;;;2.55;2.20;;;6.40;99.90;;;;;;4991817;28;20204;-77
2023/12/27 09:18:01;;;;;;;6.07;2.08;;;6.50;99.90;;;;;;4991323;28;20584;-76
2023/12/27 09:20:28;;;;;;;1.70;1.60;;;6.60;99.90;;;;;;4990846;28;20199;-76
2023/12/27 09:22:56;;;;;;;2.70;2.50;;;6.80;99.90;;;;;;4995136;28;20205;-76
2023/12/27 09:25:22;;;;;;;3.10;2.13;;;7.00;99.90;;;;;;4994985;28;20660;-76
2023/12/27 09:27:49;;;;;;;1.90;1.80;;;7.30;99.90;;;;;;4995336;28;20203;-76
2023/12/27 09:30:16;;;;;;;2.40;2.00;;;7.70;99.90;;;;;;4994682;28;20232;-77
2023/12/27 09:32:43;;;;;;;2.25;2.05;;;8.70;99.90;;;;;;4997618;28;20217;-79
2023/12/27 09:35:10;;;;;;;2.20;2.00;;;10.50;99.90;;;;;;4998592;28;20257;-79
2023/12/27 09:37:37;;;;;;;3.30;1.90;;;13.00;99.90;;;;;;4999491;28;20236;-79
2023/12/27 09:40:07;;;;;;;5.00;2.00;;;15.30;99.90;;;;;;4996975;28;20204;-78
2023/12/27 09:42:35;;;;;;;5.63;2.30;;;17.20;99.90;;;;;;4995607;28;20320;-79
2023/12/27 09:45:04;;;;;;;2.37;1.87;;;18.50;99.90;;;;;;4998228;28;20462;-79
2023/12/27 09:47:33;;;;;;;1.90;1.70;;;19.20;99.90;;;;;;4996878;28;20979;-79
2023/12/27 09:50:00;;;;;;;4.10;2.13;;;19.20;99.90;;;;;;4995795;28;20482;-77
2023/12/27 09:52:28;;;;;;;2.87;2.10;;;19.60;99.90;;;;;;4995258;28;20492;-78
2023/12/27 09:54:54;;;;;;;2.47;1.90;;;19.70;99.10;;;;;;4995147;28;20462;-77
2023/12/27 09:57:25;;;;;;;3.07;1.83;;;19.60;99.70;;;;;;4994511;28;20975;-76
2023/12/27 09:59:54;;;;;;;2.00;1.67;;;19.20;99.40;;;;;;4995271;28;20513;-76
2023/12/27 10:02:22;;;;;;;1.83;1.63;;;19.10;98.70;;;;;;4995763;28;20485;-77
2023/12/27 10:04:57;;;;;;;1.67;1.57;;;19.60;98.50;;;;;;4996941;28;20470;-77
2023/12/27 10:07:25;;;;;;;3.70;1.60;;;20.20;97.30;;;;;;4997115;28;20461;-77
2023/12/27 10:09:53;;;;;;;1.70;1.47;;;20.90;96.20;;;;;;4998789;28;20587;-78
2023/12/27 10:12:22;;;;;;;1.70;1.60;;;21.50;95.80;;;;;;5003228;28;20550;-77
2023/12/27 10:14:51;;;;;;;3.47;2.13;;;22.40;94.50;;;;;;4997326;28;20473;-79
2023/12/27 10:17:19;;;;;;;3.07;1.53;;;23.30;94.50;;;;;;5003269;28;20516;-78
2023/12/27 10:19:46;;;;;;;1.80;1.50;;;23.70;92.60;;;;;;4991794;28;20553;-77
2023/12/27 10:22:13;;;;;;;1.77;1.47;;;21.60;92.80;;;;;;4995488;28;20478;-76
2023/12/27 10:24:40;;;;;;;2.40;2.00;;;19.00;94.00;;;;;;4995855;28;20469;-77
2023/12/27 10:27:08;;;;;;;1.83;1.40;;;16.90;95.70;;;;;;4999685;28;20462;-77
2023/12/27 10:29:36;;;;;;;2.40;1.67;;;14.90;97.40;;;;;;5001123;28;20486;-77
2023/12/27 10:32:06;;;;;;;3.40;1.90;;;14.20;99.30;;;;;;4999339;28;20868;-78
2023/12/27 10:34:33;;;;;;;3.90;1.60;;;14.60;98.90;;;;;;4999980;28;20548;-78
2023/12/27 10:37:01;;;;;;;1.50;1.40;;;15.70;97.90;;;;;;5001466;28;20475;-76
2023/12/27 10:39:28;;;;;;;1.90;1.40;;;17.30;96.60;;;;;;5001665;28;20482;-78
2023/12/27 10:41:55;;;;;;;1.50;1.40;;;19.40;94.90;;;;;;5002798;28;20512;-78
2023/12/27 10:44:22;;;;;;;2.60;1.70;;;21.00;93.70;;;;;;5003403;28;20463;-78
2023/12/27 10:46:51;;;;;;;1.50;1.33;;;21.20;92.80;;;;;;5004037;28;20834;-78
2023/12/27 10:49:18;;;;;;;1.50;1.40;;;21.80;91.40;;;;;;5003719;28;20502;-78
2023/12/27 10:51:48;;;;;;;1.83;1.57;;;22.00;90.80;;;;;;4997884;28;20489;-78
2023/12/27 10:54:15;;;;;;;2.10;1.83;;;22.10;90.30;;;;;;5004190;28;20464;-79
2023/12/27 10:56:42;;;;;;;2.60;2.40;;;22.10;90.00;;;;;;4999934;28;20883;-78
2023/12/27 10:59:09;;;;;;;1.77;1.60;;;21.90;88.70;;;;;;4997237;28;20459;-76
2023/12/27 11:01:38;;;;;;;2.10;1.50;;;21.60;88.90;;;;;;4999264;28;20474;-77
2023/12/27 11:04:08;;;;;;;1.80;1.30;;;21.10;88.90;;;;;;5002611;28;20951;-79
2023/12/27 11:06:37;;;;;;;1.50;1.40;;;20.30;89.20;;;;;;5000038;28;20464;-80
2023/12/27 11:09:07;;;;;;;1.50;1.20;;;19.90;90.00;;;;;;5002126;28;20454;-78
2023/12/27 11:11:36;;;;;;;2.17;1.60;;;19.30;90.00;;;;;;5000399;28;20478;-79
2023/12/27 11:14:05;;;;;;;1.70;1.60;;;18.30;90.40;;;;;;5001718;28;20488;-77
2023/12/27 11:16:34;;;;;;;1.70;1.47;;;17.40;91.10;;;;;;4998631;28;20532;-77
2023/12/27 11:19:04;;;;;;;2.93;1.50;;;17.20;92.10;;;;;;4996930;28;20517;-77
2023/12/27 11:21:32;;;;;;;2.27;1.50;;;17.90;91.60;;;;;;5003274;28;20482;-77
2023/12/27 11:23:59;;;;;;;1.57;1.47;;;18.00;91.10;;;;;;5010086;28;20462;-78
2023/12/27 11:26:26;;;;;;;2.07;1.43;;;18.80;90.60;;;;;;5010991;28;20462;-77
2023/12/27 11:28:53;;;;;;;1.60;1.50;;;18.80;89.60;;;;;;5008988;28;20482;-77
2023/12/27 11:31:20;;;;;;;1.67;1.43;;;18.70;91.00;;;;;;5009442;28;20481;-78
2023/12/27 11:33:47;;;;;;;2.07;1.33;;;19.00;90.80;;;;;;5002431;28;20466;-78
2023/12/27 11:36:14;;;;;;;3.27;1.57;;;19.20;90.70;;;;;;5005806;28;21030;-77
2023/12/27 11:38:43;;;;;;;2.03;1.43;;;19.00;90.10;;;;;;5007822;28;20480;-78
2023/12/27 11:41:11;;;;;;;1.47;1.37;;;18.50;90.10;;;;;;5008627;28;20470;-78
2023/12/27 11:43:56;;;;;;;1.97;1.57;;;18.20;90.70;;;;;;5007583;28;20473;-77
2023/12/27 11:46:27;;;;;;;1.93;1.40;;;17.90;90.30;;;;;;5008689;28;20462;-75
2023/12/27 11:48:54;;;;;;;1.60;1.50;;;17.20;90.60;;;;;;5006951;28;20477;-77
2023/12/27 11:51:32;;;;;;;1.73;1.63;;;16.30;90.90;;;;;;5006668;28;21026;-76
2023/12/27 11:54:00;;;;;;;3.00;1.80;;;15.30;91.50;;;;;;5007217;28;20474;-78
2023/12/27 11:56:31;;;;;;;2.27;1.80;;;14.60;91.90;;;;;;5005219;28;20473;-77
2023/12/27 11:59:00;;;;;;;4.17;1.70;;;14.20;92.60;;;;;;5005547;28;20476;-78
2023/12/27 12:01:28;;;;;;;2.03;1.80;;;14.30;93.00;;;;;;5003252;28;20570;-78
2023/12/27 12:04:20;;;;;;;2.20;1.50;;;14.70;94.50;;;;;;5005636;28;20480;-77
2023/12/27 12:07:23;;;;;;;1.57;1.40;;;14.90;93.70;;;;;;4995055;28;20473;-78
2023/12/27 12:09:52;;;;;;;2.27;1.47;;;14.80;93.90;;;;;;4995479;28;20491;-77
2023/12/27 12:12:22;;;;;;;2.60;1.37;;;14.70;92.80;;;;;;5004775;28;20979;-77
2023/12/27 12:14:52;;;;;;;2.00;1.50;;;14.60;92.30;;;;;;4996985;28;20488;-79
2023/12/27 12:17:20;;;;;;;1.30;1.20;;;14.30;92.80;;;;;;5002961;28;20490;-78
2023/12/27 12:19:48;;;;;;;1.90;1.33;;;13.80;92.80;;;;;;4995748;28;20465;-78
2023/12/27 12:22:16;;;;;;;1.40;1.30;;;13.50;93.40;;;;;;5001259;28;20484;-78
2023/12/27 12:24:44;;;;;;;2.13;1.30;;;13.40;93.20;;;;;;5002536;28;20471;-78
2023/12/27 12:27:14;;;;;;;1.20;1.10;;;13.40;94.10;;;;;;5004215;28;20467;-78
2023/12/27 12:29:41;;;;;;;1.80;1.50;;;13.50;93.40;;;;;;5003259;28;20944;-79
2023/12/27 12:32:08;;;;;;;1.90;1.60;;;13.50;94.00;;;;;;5002843;28;20553;-78
2023/12/27 12:34:37;;;;;;;2.50;1.50;;;13.60;93.40;;;;;;5001487;28;20469;-78
2023/12/27 12:37:05;;;;;;;2.83;1.70;;;13.80;93.50;;;;;;5002102;28;20531;-76
2023/12/27 12:39:33;;;;;;;2.23;1.97;;;14.00;93.00;;;;;;4995772;28;20508;-78
2023/12/27 12:42:00;;;;;;;1.43;1.33;;;13.80;92.80;;;;;;4993363;28;20545;-78
2023/12/27 12:44:31;;;;;;;2.77;1.40;;;13.50;93.00;;;;;;4992574;28;20487;-78
2023/12/27 12:46:58;;;;;;;2.07;1.60;;;13.50;94.00;;;;;;4993709;28;20555;-78
2023/12/27 12:49:26;;;;;;;1.93;1.40;;;13.20;93.20;;;;;;4994464;28;20476;-79
2023/12/27 12:51:53;;;;;;;1.60;1.40;;;13.10;93.20;;;;;;4993901;28;20483;-79
2023/12/27 12:54:20;;;;;;;2.20;1.43;;;12.90;93.80;;;;;;4991601;28;20463;-77
2023/12/27 12:56:47;;;;;;;1.70;1.42;;;12.70;93.80;;;;;;4993028;28;20480;-77
2023/12/27 12:59:14;;;;;;;2.40;1.50;;;12.60;94.30;;;;;;4995788;28;20222;-77
2023/12/27 13:01:42;;;;;;;2.23;1.90;;;12.70;94.30;;;;;;4994867;28;20258;-78
2023/12/27 13:04:09;;;;;;;1.40;1.30;;;12.80;94.60;;;;;;4994749;28;20468;-78
2023/12/27 13:06:36;;;;;;;2.30;1.20;;;13.00;95.10;;;;;;4992142;28;20676;-76
2023/12/27 13:09:03;;;;;;;2.67;1.63;;;13.20;95.40;;;;;;4992163;28;20534;-76
2023/12/27 13:11:34;;;;;;;1.30;1.20;;;13.40;95.20;;;;;;4993550;28;20496;-78
2023/12/27 13:14:01;;;;;;;2.80;1.83;;;13.30;94.50;;;;;;4987146;28;20511;-76
2023/12/27 13:16:28;;;;;;;1.80;1.70;;;13.30;94.60;;;;;;4990732;28;20266;-76
2023/12/27 13:18:59;;;;;;;1.70;1.40;;;13.30;95.00;;;;;;4990903;28;20524;-77
2023/12/27 13:21:28;;;;;;;1.63;1.40;;;13.30;94.60;;;;;;4995471;28;20518;-78
2023/12/27 13:23:55;;;;;;;2.30;1.40;;;13.30;95.20;;;;;;4997773;28;20472;-78
2023/12/27 13:26:22;;;;;;;1.97;1.60;;;13.20;94.80;;;;;;4995876;28;20219;-78
2023/12/27 13:28:50;;;;;;;5.67;2.13;;;13.10;95.40;;;;;;4990479;28;20488;-79
2023/12/27 13:31:19;;;;;;;2.85;1.50;;;13.10;95.70;;;;;;4994772;28;20503;-77
2023/12/27 13:33:47;;;;;;;1.27;1.10;;;13.00;95.80;;;;;;4971113;28;20215;-77
2023/12/27 13:36:16;;;;;;;2.13;1.70;;;13.00;95.90;;;;;;4977297;28;20474;-80
2023/12/27 13:38:47;;;;;;;1.57;1.47;;;13.00;96.30;;;;;;4988496;28;20987;-79
2023/12/27 13:41:14;;;;;;;1.40;1.30;;;12.90;96.40;;;;;;4985567;28;20557;-79
2023/12/27 13:43:42;;;;;;;3.92;1.60;;;12.80;96.60;;;;;;4979879;28;20254;-79
2023/12/27 13:46:10;;;;;;;2.27;1.50;;;12.80;96.90;;;;;;4986514;28;20219;-79
2023/12/27 13:48:38;;;;;;;4.07;1.60;;;12.80;97.20;;;;;;4991393;28;20509;-79
2023/12/27 13:51:05;;;;;;;2.27;1.43;;;12.70;97.00;;;;;;4992533;28;20231;-78
2023/12/27 13:53:35;;;;;;;2.30;1.70;;;12.70;98.50;;;;;;4985530;28;20532;-78
2023/12/27 13:56:02;;;;;;;1.80;1.67;;;12.50;97.50;;;;;;4992975;28;20674;-78
2023/12/27 13:58:30;;;;;;;1.95;1.40;;;12.40;97.70;;;;;;4974967;28;20565;-77
2023/12/27 14:00:57;;;;;;;3.03;1.80;;;12.30;98.70;;;;;;4972197;28;20233;-79
2023/12/27 14:03:24;;;;;;;2.63;1.55;;;12.20;99.00;;;;;;4975226;28;20217;-78
2023/12/27 14:05:51;;;;;;;1.83;1.65;;;12.00;98.70;;;;;;4981156;28;20731;-77
2023/12/27 14:08:19;;;;;;;6.63;2.00;;;11.90;99.40;;;;;;4984231;28;20681;-76
2023/12/27 14:10:48;;;;;;;2.83;1.40;;;11.80;99.70;;;;;;4975583;28;20875;-77
2023/12/27 14:13:18;;;;;;;1.67;1.55;;;11.70;99.50;;;;;;4977876;28;20224;-81
2023/12/27 14:15:45;;;;;;;2.40;1.60;;;11.70;99.60;;;;;;4980239;28;20262;-80
2023/12/27 14:18:14;;;;;;;2.40;2.00;;;11.60;99.50;;;;;;4977733;28;20291;-80
2023/12/27 14:20:42;;;;;;;2.70;1.70;;;11.40;99.90;;;;;;4975012;28;20236;-76
2023/12/27 14:23:11;;;;;;;1.95;1.60;;;11.30;99.90;;;;;;4972270;28;20219;-76
2023/12/27 14:25:38;;;;;;;2.72;2.00;;;11.20;99.90;;;;;;4973886;28;20213;-76
2023/12/27 14:28:07;;;;;;;1.85;1.70;;;11.10;99.80;;;;;;4972654;28;20240;-76
2023/12/27 14:30:34;;;;;;;2.13;1.80;;;11.00;99.90;;;;;;4974794;28;20306;-79
2023/12/27 14:33:02;;;;;;;1.83;1.73;;;10.90;99.90;;;;;;4994827;28;20707;-78
2023/12/27 14:35:29;;;;;;;3.15;2.22;;;10.80;99.90;;;;;;4994090;28;20695;-85
2023/12/27 14:37:56;;;;;;;2.65;1.63;;;10.70;99.90;;;;;;4991420;28;20216;-81
2023/12/27 14:40:25;;;;;;;2.58;2.10;;;10.70;99.90;;;;;;4998059;28;20208;-81
2023/12/27 14:42:52;;;;;;;2.38;1.85;;;10.60;99.90;;;;;;4997074;28;20217;-81
2023/12/27 14:45:21;;;;;;;3.45;1.85;;;10.40;99.90;;;;;;4997410;28;20222;-84
2023/12/27 14:47:47;;;;;;;4.65;2.50;;;10.30;99.90;;;;;;4996484;28;20208;-84
2023/12/27 14:50:14;;;;;;;3.30;2.20;;;10.20;99.90;;;;;;4997249;28;20246;-83
2023/12/27 14:52:41;;;;;;;4.78;3.13;;;10.20;99.90;;;;;;4998788;28;20215;-82
2023/12/27 14:55:09;;;;;;;4.80;3.53;;;10.10;99.90;;;;;;4999123;28;20578;-88
2023/12/27 14:57:36;;;;;;;5.55;3.47;;;9.90;99.90;;;;;;4993509;28;20366;-89
2023/12/27 15:00:09;;;;;;;5.88;3.05;;;9.90;99.90;;;;;;4993843;28;20217;-88
2023/12/27 15:02:38;;;;;;;5.53;3.60;;;9.80;99.90;;;;;;4993946;28;20235;-88
2023/12/27 15:05:06;;;;;;;3.45;2.97;;;9.70;99.90;;;;;;4996431;28;20270;-79
2023/12/27 15:07:33;;;;;;;6.18;4.10;;;9.60;99.90;;;;;;5000312;28;20210;-78
2023/12/27 15:10:01;;;;;;;8.45;4.88;;;9.50;99.90;;;;;;4999951;28;20221;-79
2023/12/27 15:12:27;;;;;;;7.97;5.25;;;9.40;99.90;;;;;;4999790;28;20241;-79
2023/12/27 15:14:55;;;;;;;6.97;4.10;;;9.30;99.90;;;;;;5000872;28;20218;-78
2023/12/27 15:17:22;;;;;;;5.55;3.55;;;9.20;99.90;;;;;;5000689;28;20214;-79
2023/12/27 15:19:50;;;;;;;3.95;3.00;;;9.10;99.90;;;;;;5000592;28;20225;-79
2023/12/27 15:22:17;;;;;;;3.50;2.85;;;9.00;99.90;;;;;;4999728;28;20227;-79
2023/12/27 15:24:44;;;;;;;3.72;2.65;;;8.90;99.90;;;;;;5001652;28;20593;-79
2023/12/27 15:27:13;;;;;;;4.70;2.90;;;8.80;99.90;;;;;;5001071;28;20217;-86
2023/12/27 15:29:40;;;;;;;3.10;2.42;;;8.60;99.90;;;;;;4998593;28;20214;-80
2023/12/27 15:32:07;;;;;;;3.72;2.72;;;8.50;99.90;;;;;;4997363;28;20229;-79
2023/12/27 15:34:34;;;;;;;4.20;2.08;;;8.30;99.90;;;;;;4998128;28;20225;-79
2023/12/27 15:37:03;;;;;;;3.60;2.20;;;8.20;99.90;;;;;;4996102;28;20697;-79
2023/12/27 15:39:29;;;;;;;2.45;2.00;;;8.10;99.90;;;;;;5003275;28;20216;-79
2023/12/27 15:41:57;;;;;;;2.40;2.17;;;8.00;99.90;;;;;;5006073;28;20222;-78
2023/12/27 15:44:25;;;;;;;4.10;1.90;;;7.90;99.90;;;;;;5001927;28;20246;-79
2023/12/27 15:46:52;;;;;;;3.67;2.30;;;7.80;99.90;;;;;;5006840;28;20681;-80
2023/12/27 15:49:19;;;;;;;2.22;2.03;;;7.70;99.90;;;;;;5007533;28;20207;-79
2023/12/27 15:51:46;;;;;;;2.80;2.45;;;7.60;99.90;;;;;;5003674;28;20258;-77
2023/12/27 15:54:14;;;;;;;4.22;2.47;;;7.50;99.90;;;;;;4997554;28;20295;-79
2023/12/27 15:56:44;;;;;;;4.38;1.88;;;7.40;99.90;;;;;;5001240;28;20230;-79
2023/12/27 15:59:13;;;;;;;2.08;1.55;;;7.40;99.90;;;;;;5001574;28;20212;-80
2023/12/27 16:01:42;;;;;;;3.45;1.70;;;7.30;99.90;;;;;;4998038;28;20252;-80
2023/12/27 16:04:09;;;;;;;4.50;1.85;;;7.20;99.90;;;;;;4995695;28;20210;-79
2023/12/27 16:06:36;;;;;;;3.20;2.15;;;7.10;99.90;;;;;;4995256;28;20208;-80
2023/12/27 16:09:04;;;;;;;3.00;1.85;;;7.10;99.90;;;;;;4994577;28;20218;-81
2023/12/27 16:11:32;;;;;;;3.53;2.25;;;7.00;99.90;;;;;;4995721;28;20315;-80
2023/12/27 16:13:59;;;;;;;3.17;2.45;;;6.90;99.90;;;;;;4994660;28;20223;-80
2023/12/27 16:16:26;;;;;;;1.70;1.60;;;6.80;99.90;;;;;;4994244;28;20267;-81
2023/12/27 16:18:53;;;;;;;2.17;1.95;;;6.80;99.90;;;;;;4994609;28;20222;-80
2023/12/27 16:21:20;;;;;;;2.80;1.80;;;6.70;99.90;;;;;;4994316;28;20319;-81
2023/12/27 16:23:47;;;;;;;1.60;1.50;;;6.60;99.90;;;;;;4991560;28;20220;-80
2023/12/27 16:26:14;;;;;;;4.00;2.15;;;6.60;99.90;;;;;;4994388;28;20208;-80
2023/12/27 16:28:43;;;;;;;4.53;2.25;;;6.50;99.90;;;;;;4994501;28;20246;-81
2023/12/27 16:31:09;;;;;;;3.00;2.22;;;6.40;99.90;;;;;;4989106;28;20227;-81
2023/12/27 16:33:36;;;;;;;4.60;2.10;;;6.40;99.90;;;;;;4994031;28;20589;-80
2023/12/27 16:36:04;;;;;;;4.13;2.13;;;6.30;99.90;;;;;;4994384;28;20227;-81
2023/12/27 16:38:31;;;;;;;2.97;1.80;;;6.30;99.90;;;;;;4995355;28;20223;-80
2023/12/27 16:41:01;;;;;;;6.10;2.63;;;6.20;99.90;;;;;;4994738;28;20611;-80
2023/12/27 16:43:36;;;;;;;2.83;2.28;;;6.20;99.90;;;;;;4993658;28;20214;-80
2023/12/27 16:46:05;;;;;;;2.72;2.13;;;6.10;99.90;;;;;;4994005;28;20745;-80
2023/12/27 16:48:33;;;;;;;2.60;2.20;;;6.10;99.90;;;;;;4993915;28;20217;-80
2023/12/27 16:51:00;;;;;;;4.13;1.90;;;6.00;99.90;;;;;;4993018;28;20231;-81
2023/12/27 16:53:27;;;;;;;3.70;2.15;;;5.90;99.90;;;;;;4993121;28;20215;-80
2023/12/27 16:55:54;;;;;;;1.83;1.70;;;5.90;99.90;;;;;;4993226;28;20215;-79
2023/12/27 16:58:21;;;;;;;2.85;2.08;;;5.90;99.90;;;;;;4993762;28;20299;-80
2023/12/27 17:00:48;;;;;;;6.47;2.78;;;5.70;99.90;;;;;;4990427;28;20230;-80
2023/12/27 17:03:16;;;;;;;3.88;2.50;;;5.70;99.90;;;;;;4993391;28;20756;-80
2023/12/27 17:05:44;;;;;;;2.42;2.20;;;5.60;99.90;;;;;;4987997;28;20746;-80
2023/12/27 17:08:11;;;;;;;3.42;2.50;;;5.60;99.90;;;;;;4990287;28;20419;-80